Time;durP1;ratioP1;P1;durP2;ratioP2;P2;SDS_P1;SDS_P2;PMS_P1;PMS_P2;Temp;Humidity;BMP_temperature;BMP_pressure;BME280_temperature;BME280_humidity;BME280_pressure;Samples;Min_cycle;Max_cycle;Signal;HPM_P1;HPM_P2
2022/09/25 00:00:36;;;;;;;2.45;0.82;;;12.60;99.90;;;;;;5054854;28;20412;-56
2022/09/25 00:03:04;;;;;;;1.77;0.80;;;12.60;99.90;;;;;;5053296;28;20032;-56
2022/09/25 00:05:30;;;;;;;2.88;0.88;;;12.60;99.90;;;;;;5054481;28;20017;-56
2022/09/25 00:07:55;;;;;;;2.58;0.70;;;12.50;99.90;;;;;;5051977;28;20461;-56
2022/09/25 00:10:27;;;;;;;4.00;0.60;;;12.50;99.90;;;;;;5053333;28;20031;-57
2022/09/25 00:12:53;;;;;;;3.40;0.70;;;12.50;99.90;;;;;;5052933;28;20020;-55
2022/09/25 00:15:18;;;;;;;4.40;1.35;;;12.40;99.90;;;;;;5052776;28;20036;-56
2022/09/25 00:17:44;;;;;;;2.85;0.60;;;12.40;99.90;;;;;;5052929;28;20477;-55
2022/09/25 00:20:09;;;;;;;1.77;0.55;;;12.50;99.90;;;;;;5052904;28;20060;-57
2022/09/25 00:22:35;;;;;;;2.03;0.50;;;12.50;99.90;;;;;;5053266;28;20078;-56
2022/09/25 00:25:01;;;;;;;7.13;0.98;;;12.50;99.90;;;;;;5053384;28;20544;-55
2022/09/25 00:27:27;;;;;;;1.52;0.68;;;12.50;99.90;;;;;;5052706;28;20021;-56
2022/09/25 00:29:52;;;;;;;1.33;0.55;;;12.50;99.90;;;;;;5054478;28;20037;-57
2022/09/25 00:32:18;;;;;;;1.88;0.50;;;12.50;99.90;;;;;;5052782;28;20094;-57
2022/09/25 00:34:43;;;;;;;2.28;0.50;;;12.50;99.90;;;;;;5052910;28;20029;-56
2022/09/25 00:37:09;;;;;;;3.63;0.60;;;12.50;99.90;;;;;;5052778;28;20103;-56
2022/09/25 00:39:35;;;;;;;4.07;0.60;;;12.50;99.90;;;;;;5052983;28;20107;-56
2022/09/25 00:42:00;;;;;;;4.78;0.70;;;12.50;99.90;;;;;;5054517;28;20044;-56
2022/09/25 00:44:57;;;;;;;2.60;0.82;;;12.50;99.90;;;;;;5052887;28;20057;-57
2022/09/25 00:47:43;;;;;;;2.72;0.60;;;12.50;99.90;;;;;;5043397;28;20040;-56
2022/09/25 00:50:24;;;;;;;2.17;0.73;;;12.50;99.90;;;;;;5053814;28;20024;-56
2022/09/25 00:52:53;;;;;;;1.90;0.75;;;12.40;99.90;;;;;;5052543;28;20139;-56
2022/09/25 00:55:22;;;;;;;2.70;0.63;;;12.40;99.90;;;;;;5053743;28;20113;-56
2022/09/25 00:57:52;;;;;;;3.20;0.63;;;12.40;99.90;;;;;;5053485;28;20644;-56
2022/09/25 01:00:17;;;;;;;4.78;1.17;;;12.30;99.90;;;;;;5052590;28;20032;-56
2022/09/25 01:02:48;;;;;;;5.13;1.20;;;12.30;99.90;;;;;;5053419;28;20017;-56
2022/09/25 01:05:17;;;;;;;3.03;0.80;;;12.30;99.90;;;;;;5052897;28;20112;-56
2022/09/25 01:07:46;;;;;;;2.60;0.70;;;12.30;99.90;;;;;;5052504;28;20052;-57
2022/09/25 01:10:13;;;;;;;2.78;0.90;;;12.20;99.90;;;;;;5034071;28;20029;-56
2022/09/25 01:12:44;;;;;;;3.63;1.20;;;12.20;99.90;;;;;;5054769;28;20108;-56
2022/09/25 01:15:13;;;;;;;2.03;0.95;;;12.20;99.90;;;;;;5053494;28;20049;-57
2022/09/25 01:17:57;;;;;;;2.20;0.82;;;12.20;99.90;;;;;;5043913;28;20112;-56
2022/09/25 01:20:39;;;;;;;1.98;0.85;;;12.10;99.90;;;;;;5040914;28;20104;-57
2022/09/25 01:23:24;;;;;;;1.70;1.00;;;12.10;99.90;;;;;;5050211;28;20021;-57
2022/09/25 01:26:18;;;;;;;3.08;0.95;;;12.10;99.90;;;;;;5051136;28;20021;-56
2022/09/25 01:28:46;;;;;;;2.13;1.23;;;12.10;99.90;;;;;;5067706;28;20036;-57
2022/09/25 01:31:53;;;;;;;2.42;0.90;;;12.00;99.90;;;;;;5051863;28;20042;-56
2022/09/25 01:34:39;;;;;;;8.45;1.20;;;12.00;99.90;;;;;;5033896;28;20041;-56
2022/09/25 01:37:28;;;;;;;2.50;1.10;;;12.00;99.90;;;;;;5042033;28;20017;-56
2022/09/25 01:40:13;;;;;;;2.45;1.10;;;11.90;99.90;;;;;;5051638;28;20499;-56
2022/09/25 01:42:50;;;;;;;2.50;1.17;;;11.80;99.90;;;;;;5052780;28;20095;-56
2022/09/25 01:45:22;;;;;;;3.53;1.13;;;11.80;99.90;;;;;;5052791;28;20033;-56
2022/09/25 01:47:50;;;;;;;2.38;1.10;;;11.80;99.90;;;;;;5044638;28;20093;-56
2022/09/25 01:50:24;;;;;;;4.28;1.38;;;11.80;99.90;;;;;;5051158;28;20492;-56
2022/09/25 01:52:53;;;;;;;2.85;1.20;;;11.70;99.90;;;;;;5051659;28;20093;-56
2022/09/25 01:55:34;;;;;;;3.07;1.07;;;11.70;99.90;;;;;;5052359;28;20025;-56
2022/09/25 01:58:15;;;;;;;3.65;1.10;;;11.70;99.90;;;;;;5052678;28;20044;-56
2022/09/25 02:00:44;;;;;;;4.18;1.40;;;11.70;99.90;;;;;;5040419;28;20469;-55
2022/09/25 02:03:20;;;;;;;2.92;1.65;;;11.60;99.90;;;;;;5052268;28;20063;-56
2022/09/25 02:05:52;;;;;;;2.78;1.10;;;11.60;99.90;;;;;;5052711;28;20036;-55
2022/09/25 02:08:25;;;;;;;2.55;1.08;;;11.50;99.90;;;;;;5052299;28;20481;-56
2022/09/25 02:10:56;;;;;;;3.53;1.10;;;11.60;99.90;;;;;;5051273;28;20392;-55
2022/09/25 02:13:25;;;;;;;2.63;1.02;;;11.50;99.90;;;;;;5052168;28;20009;-56
2022/09/25 02:15:56;;;;;;;2.42;1.10;;;11.50;99.90;;;;;;5052379;28;20469;-57
2022/09/25 02:21:29;;;;;;;2.88;1.17;;;11.50;99.90;;;;;;5048550;28;20040;-56
2022/09/25 02:24:15;;;;;;;2.17;1.25;;;11.50;99.90;;;;;;5052513;28;20025;-55
2022/09/25 02:26:40;;;;;;;3.50;1.20;;;11.40;99.90;;;;;;5041475;28;20051;-55
2022/09/25 02:29:07;;;;;;;3.45;1.38;;;11.40;99.90;;;;;;5051917;28;20033;-56
2022/09/25 02:31:56;;;;;;;2.75;1.60;;;11.40;99.90;;;;;;5050966;28;20064;-55
2022/09/25 02:34:22;;;;;;;2.05;1.05;;;11.40;99.90;;;;;;5051887;28;20051;-56
2022/09/25 02:36:48;;;;;;;2.28;0.90;;;11.30;99.90;;;;;;5052100;28;20477;-56
2022/09/25 02:39:17;;;;;;;2.95;1.10;;;11.30;99.90;;;;;;5050816;28;20025;-57
2022/09/25 02:42:16;;;;;;;1.83;1.05;;;11.30;99.90;;;;;;5051600;28;20098;-56
2022/09/25 02:45:04;;;;;;;3.38;1.05;;;11.30;99.90;;;;;;5052111;28;20060;-57
2022/09/25 02:47:53;;;;;;;2.05;1.00;;;11.30;99.90;;;;;;5042234;28;20025;-56
2022/09/25 02:50:52;;;;;;;1.02;0.60;;;11.20;99.90;;;;;;5051842;28;20029;-56
2022/09/25 02:53:42;;;;;;;1.80;0.90;;;11.10;99.90;;;;;;5050537;28;20060;-55
2022/09/25 02:56:30;;;;;;;1.20;0.80;;;11.10;99.90;;;;;;5050908;28;20546;-57
2022/09/25 02:59:01;;;;;;;0.98;0.60;;;11.00;99.90;;;;;;5045171;28;20029;-56
2022/09/25 03:01:30;;;;;;;1.05;0.68;;;10.90;99.90;;;;;;5048139;28;20082;-56
2022/09/25 03:03:58;;;;;;;1.47;0.70;;;10.90;99.90;;;;;;5052076;28;20511;-55
2022/09/25 03:06:26;;;;;;;1.20;0.70;;;10.80;99.90;;;;;;5051775;28;20346;-56
2022/09/25 03:08:55;;;;;;;1.45;0.60;;;10.80;99.90;;;;;;5051659;28;20036;-56
2022/09/25 03:11:23;;;;;;;1.05;0.60;;;10.70;99.90;;;;;;5055203;28;20017;-55
2022/09/25 03:13:57;;;;;;;1.88;0.70;;;10.70;99.90;;;;;;5050565;28;20052;-55
2022/09/25 03:16:50;;;;;;;3.17;0.90;;;10.70;99.90;;;;;;5050010;28;20025;-56
2022/09/25 03:19:20;;;;;;;2.75;0.70;;;10.70;99.90;;;;;;5051505;28;20064;-55
2022/09/25 03:21:46;;;;;;;2.50;0.98;;;10.60;99.90;;;;;;5051860;28;20574;-56
2022/09/25 03:24:13;;;;;;;3.85;0.93;;;10.60;99.90;;;;;;5050304;28;20041;-53
2022/09/25 03:26:39;;;;;;;1.90;1.02;;;10.60;99.90;;;;;;5050585;28;20028;-57
2022/09/25 03:29:05;;;;;;;3.17;1.08;;;10.60;99.90;;;;;;5053214;28;20362;-56
2022/09/25 03:31:31;;;;;;;1.00;0.90;;;10.60;99.90;;;;;;5054036;28;20025;-57
2022/09/25 03:33:57;;;;;;;1.00;0.70;;;10.50;99.90;;;;;;5054767;28;20085;-56
2022/09/25 03:36:25;;;;;;;1.27;0.70;;;10.50;99.90;;;;;;5054021;28;20120;-56
2022/09/25 03:38:56;;;;;;;1.63;0.57;;;10.40;99.90;;;;;;5055031;28;20021;-55
2022/09/25 03:41:22;;;;;;;2.42;0.77;;;10.40;99.90;;;;;;5055213;28;20041;-55
2022/09/25 03:43:50;;;;;;;1.02;0.65;;;10.30;99.90;;;;;;5054947;28;20104;-55
2022/09/25 03:46:18;;;;;;;2.17;1.00;;;10.30;99.90;;;;;;5054841;28;20041;-55
2022/09/25 03:48:45;;;;;;;1.80;0.82;;;10.30;99.90;;;;;;5055147;28;20112;-56
2022/09/25 03:51:13;;;;;;;2.35;0.90;;;10.20;99.90;;;;;;5053574;28;20145;-56
2022/09/25 03:53:39;;;;;;;2.83;0.90;;;10.20;99.90;;;;;;5054923;28;20082;-57
2022/09/25 03:56:09;;;;;;;2.05;1.10;;;10.10;99.90;;;;;;5053401;28;20111;-55
2022/09/25 03:58:35;;;;;;;2.45;0.93;;;10.10;99.90;;;;;;5053568;28;20108;-56
2022/09/25 04:01:01;;;;;;;1.40;0.77;;;10.10;99.90;;;;;;5053417;28;20104;-56
2022/09/25 04:03:28;;;;;;;1.63;1.00;;;10.00;99.90;;;;;;5053567;28;20032;-55
2022/09/25 04:05:55;;;;;;;2.03;1.10;;;10.00;99.90;;;;;;5053382;28;20017;-56
2022/09/25 04:08:25;;;;;;;1.70;1.08;;;10.00;99.90;;;;;;5054673;28;20024;-56
2022/09/25 04:10:58;;;;;;;;;;;10.00;99.90;;;;;;5053548;28;20392;-56
2022/09/25 04:13:25;;;;;;;1.38;0.93;;;9.90;99.90;;;;;;5054645;28;19909;-56
2022/09/25 04:15:51;;;;;;;1.70;1.00;;;9.90;99.90;;;;;;5053056;28;20017;-55
2022/09/25 04:18:17;;;;;;;3.20;1.10;;;9.90;99.90;;;;;;5052739;28;20096;-55
2022/09/25 04:20:42;;;;;;;3.45;1.08;;;9.90;99.90;;;;;;5053041;28;20032;-56
2022/09/25 04:23:08;;;;;;;6.28;1.25;;;9.90;99.90;;;;;;5054257;28;20096;-56
2022/09/25 04:25:33;;;;;;;0.90;0.60;;;9.90;99.90;;;;;;5053204;28;20048;-55
2022/09/25 04:27:59;;;;;;;1.75;0.60;;;9.80;99.90;;;;;;5052848;28;20020;-56
2022/09/25 04:30:26;;;;;;;2.35;0.60;;;9.80;99.90;;;;;;5053907;28;20046;-56
2022/09/25 04:35:37;;;;;;;1.08;0.40;;;9.70;99.90;;;;;;5054067;28;20028;-56
2022/09/25 04:38:03;;;;;;;1.95;0.50;;;9.60;99.90;;;;;;5054105;28;20025;-55
2022/09/25 04:40:29;;;;;;;1.10;0.57;;;9.60;99.90;;;;;;5051206;28;20021;-56
2022/09/25 04:42:59;;;;;;;0.60;0.43;;;9.50;99.90;;;;;;5054105;28;20542;-55
2022/09/25 04:45:26;;;;;;;0.82;0.50;;;9.50;99.90;;;;;;5053911;28;20025;-56
2022/09/25 04:47:53;;;;;;;2.10;0.40;;;9.40;99.90;;;;;;5052950;28;20033;-56
2022/09/25 04:50:20;;;;;;;0.68;0.40;;;9.50;99.90;;;;;;5052404;28;20021;-56
2022/09/25 04:52:45;;;;;;;0.60;0.40;;;9.40;99.90;;;;;;5053546;28;20031;-56
2022/09/25 04:55:11;;;;;;;1.83;0.70;;;9.40;99.90;;;;;;5053647;28;20104;-56
2022/09/25 04:57:38;;;;;;;2.15;0.77;;;9.40;99.90;;;;;;5052393;28;20032;-56
2022/09/25 05:00:05;;;;;;;1.35;1.05;;;9.50;99.90;;;;;;5053419;28;20104;-55
2022/09/25 05:02:30;;;;;;;1.00;0.80;;;9.40;99.90;;;;;;5053392;28;20049;-55
2022/09/25 05:04:56;;;;;;;7.45;0.80;;;9.50;99.90;;;;;;5052135;28;20049;-54
2022/09/25 05:07:21;;;;;;;0.75;0.57;;;9.40;99.90;;;;;;5051870;28;20032;-57
2022/09/25 05:09:47;;;;;;;0.40;0.40;;;9.40;99.90;;;;;;5049309;28;20021;-56
2022/09/25 05:12:13;;;;;;;1.02;0.60;;;9.30;99.90;;;;;;5064980;28;20021;-55
2022/09/25 05:14:41;;;;;;;0.80;0.60;;;9.30;99.90;;;;;;5051785;28;20112;-56
2022/09/25 05:17:07;;;;;;;1.25;0.50;;;9.20;99.90;;;;;;5051736;28;20024;-56
2022/09/25 05:19:33;;;;;;;0.60;0.35;;;9.20;99.90;;;;;;5048522;28;20104;-55
2022/09/25 05:21:59;;;;;;;0.80;0.40;;;9.20;99.90;;;;;;5051498;28;20044;-55
2022/09/25 05:24:25;;;;;;;3.03;0.52;;;9.10;99.90;;;;;;5051688;28;20465;-55
2022/09/25 05:26:50;;;;;;;0.57;0.30;;;9.10;99.90;;;;;;5051905;28;20028;-55
2022/09/25 05:29:16;;;;;;;3.90;0.30;;;9.10;99.90;;;;;;5051144;28;20033;-55
2022/09/25 05:31:45;;;;;;;0.93;0.28;;;9.00;99.90;;;;;;5051599;28;20021;-54
2022/09/25 05:34:11;;;;;;;0.30;0.30;;;9.00;99.90;;;;;;5050214;28;20024;-56
2022/09/25 05:36:37;;;;;;;1.02;0.30;;;8.90;99.90;;;;;;5051263;28;20104;-56
2022/09/25 05:39:03;;;;;;;0.47;0.30;;;8.90;99.90;;;;;;5036889;28;20104;-54
2022/09/25 05:41:30;;;;;;;0.63;0.40;;;8.90;99.90;;;;;;5060227;28;20051;-55
2022/09/25 05:43:56;;;;;;;0.93;0.40;;;8.90;99.90;;;;;;5051424;28;20025;-56
2022/09/25 05:46:22;;;;;;;0.80;0.60;;;8.90;99.90;;;;;;5051276;28;20025;-56
2022/09/25 05:48:48;;;;;;;0.55;0.45;;;8.90;99.90;;;;;;5060215;28;20477;-56
2022/09/25 05:51:14;;;;;;;0.60;0.50;;;8.90;99.90;;;;;;5035628;28;20120;-56
2022/09/25 05:53:39;;;;;;;1.13;0.50;;;8.90;99.90;;;;;;5034597;28;20429;-55
2022/09/25 05:56:05;;;;;;;1.15;0.52;;;8.90;99.90;;;;;;5035529;28;20032;-56
2022/09/25 05:58:32;;;;;;;0.65;0.50;;;9.00;99.90;;;;;;5035469;28;20413;-56
2022/09/25 06:01:03;;;;;;;0.80;0.50;;;8.90;99.90;;;;;;5039347;28;20128;-55
2022/09/25 06:03:29;;;;;;;0.60;0.40;;;9.00;99.90;;;;;;5045955;28;20021;-56
2022/09/25 06:05:56;;;;;;;0.93;0.50;;;8.90;99.90;;;;;;5030057;28;20025;-56
2022/09/25 06:08:22;;;;;;;0.93;0.50;;;9.00;99.90;;;;;;5039871;28;20021;-56
2022/09/25 06:10:52;;;;;;;0.55;0.30;;;8.90;99.90;;;;;;5034767;28;20025;-55
2022/09/25 06:13:18;;;;;;;1.30;0.30;;;9.00;99.90;;;;;;5041675;28;20127;-56
2022/09/25 06:15:43;;;;;;;2.05;0.38;;;8.90;99.90;;;;;;5049467;28;20031;-56
2022/09/25 06:18:09;;;;;;;0.50;0.30;;;8.80;99.90;;;;;;5048619;28;20021;-56
2022/09/25 06:20:35;;;;;;;0.60;0.40;;;8.80;99.90;;;;;;5048826;28;20063;-55
2022/09/25 06:23:01;;;;;;;0.55;0.32;;;8.80;99.90;;;;;;5045357;28;20013;-56
2022/09/25 06:25:31;;;;;;;0.40;0.30;;;8.80;99.90;;;;;;5051069;28;20040;-55
2022/09/25 06:27:59;;;;;;;0.82;0.40;;;8.90;99.90;;;;;;5051169;28;20021;-56
2022/09/25 06:30:33;;;;;;;0.52;0.40;;;8.90;99.90;;;;;;5050929;28;20050;-55
2022/09/25 06:32:59;;;;;;;1.13;0.60;;;9.00;99.90;;;;;;5050351;28;20021;-56
2022/09/25 06:35:26;;;;;;;1.42;0.60;;;9.00;99.90;;;;;;5049559;28;20060;-56
2022/09/25 06:37:56;;;;;;;0.80;0.50;;;9.00;99.90;;;;;;5050941;28;20020;-56
2022/09/25 06:40:21;;;;;;;1.10;0.80;;;9.00;99.90;;;;;;5056962;28;20375;-55
2022/09/25 06:42:49;;;;;;;1.00;0.77;;;9.10;99.90;;;;;;5049610;28;20028;-53
2022/09/25 06:45:15;;;;;;;0.90;0.60;;;9.10;99.90;;;;;;5050544;28;20029;-54
2022/09/25 06:47:40;;;;;;;1.00;0.70;;;9.10;99.90;;;;;;5050675;28;20472;-56
2022/09/25 06:50:07;;;;;;;2.75;1.15;;;9.10;99.90;;;;;;5047966;28;20029;-55
2022/09/25 06:52:32;;;;;;;1.23;0.90;;;9.10;99.90;;;;;;5050489;28;20025;-56
2022/09/25 06:54:58;;;;;;;1.15;0.80;;;9.20;99.90;;;;;;5050356;28;20039;-56
2022/09/25 06:57:23;;;;;;;1.60;1.00;;;9.20;99.90;;;;;;5050344;28;20033;-55
2022/09/25 06:59:49;;;;;;;1.20;0.90;;;9.30;99.90;;;;;;5050492;28;20017;-54
2022/09/25 07:04:59;;;;;;;1.98;1.23;;;9.40;99.90;;;;;;5045531;28;20067;-55
2022/09/25 07:07:24;;;;;;;2.40;1.95;;;9.40;99.90;;;;;;5053958;28;20052;-56
2022/09/25 07:09:50;;;;;;;2.05;1.55;;;9.50;99.90;;;;;;5054770;28;20036;-54
2022/09/25 07:12:20;;;;;;;2.60;2.22;;;9.60;99.90;;;;;;5053958;28;20032;-55
2022/09/25 07:14:46;;;;;;;4.03;3.63;;;9.60;99.90;;;;;;5054640;28;20025;-55
2022/09/25 07:17:13;;;;;;;3.90;2.70;;;9.70;99.90;;;;;;5052570;28;20037;-55
2022/09/25 07:19:39;;;;;;;3.55;2.25;;;9.70;99.90;;;;;;5046584;28;20458;-55
2022/09/25 07:22:04;;;;;;;3.85;2.10;;;9.80;99.90;;;;;;5044924;28;20108;-55
2022/09/25 07:24:31;;;;;;;2.20;1.67;;;9.90;99.90;;;;;;5052894;28;20099;-55
2022/09/25 07:26:57;;;;;;;3.20;1.90;;;9.90;99.90;;;;;;5055139;28;20021;-56
2022/09/25 07:29:22;;;;;;;1.63;1.52;;;10.00;99.90;;;;;;5054578;28;20025;-56
2022/09/25 07:31:48;;;;;;;2.70;1.67;;;10.00;99.90;;;;;;5055151;28;20048;-56
2022/09/25 07:34:14;;;;;;;2.00;1.40;;;10.10;99.90;;;;;;5054666;28;20083;-56
2022/09/25 07:36:41;;;;;;;3.00;1.75;;;10.20;99.90;;;;;;5054146;28;20469;-56
2022/09/25 07:39:07;;;;;;;2.30;1.90;;;10.30;99.90;;;;;;5054895;28;20013;-56
2022/09/25 07:41:33;;;;;;;2.38;1.77;;;10.40;99.90;;;;;;5054570;28;20067;-55
2022/09/25 07:43:59;;;;;;;2.80;1.60;;;10.40;99.90;;;;;;5053807;28;20056;-55
2022/09/25 07:46:26;;;;;;;4.32;1.42;;;10.50;99.90;;;;;;5053696;28;20067;-56
2022/09/25 07:48:52;;;;;;;2.38;1.45;;;10.60;99.90;;;;;;5055284;28;20027;-56
2022/09/25 07:51:20;;;;;;;1.70;1.13;;;10.70;99.90;;;;;;5053658;28;20043;-55
2022/09/25 07:53:46;;;;;;;1.48;1.13;;;10.80;99.90;;;;;;5053603;28;20032;-56
2022/09/25 07:56:12;;;;;;;1.95;1.15;;;10.90;99.90;;;;;;5054451;28;20016;-56
2022/09/25 07:58:41;;;;;;;3.58;0.95;;;11.00;99.90;;;;;;5050017;28;20017;-55
2022/09/25 08:01:10;;;;;;;2.85;0.88;;;11.10;99.90;;;;;;5051089;28;20020;-55
2022/09/25 08:03:35;;;;;;;7.03;1.70;;;11.10;99.90;;;;;;5053399;28;20021;-56
2022/09/25 08:06:04;;;;;;;3.78;0.80;;;11.20;99.90;;;;;;5054937;28;20483;-55
2022/09/25 08:08:31;;;;;;;1.38;0.80;;;11.30;99.90;;;;;;5053436;28;20113;-56
2022/09/25 08:11:02;;;;;;;2.42;0.98;;;11.40;99.90;;;;;;5054677;28;20150;-56
2022/09/25 08:13:28;;;;;;;1.65;0.60;;;11.50;99.90;;;;;;5052725;28;20025;-56
2022/09/25 08:15:55;;;;;;;1.35;0.70;;;11.60;99.90;;;;;;5033554;28;20024;-55
2022/09/25 08:18:23;;;;;;;1.75;0.60;;;11.70;99.90;;;;;;5054205;28;20013;-56
2022/09/25 08:20:49;;;;;;;2.20;0.60;;;11.80;99.90;;;;;;5052880;28;20027;-56
2022/09/25 08:23:14;;;;;;;2.42;0.60;;;11.90;99.90;;;;;;5054300;28;20104;-55
2022/09/25 08:25:40;;;;;;;2.92;0.60;;;12.00;99.90;;;;;;5052721;28;20029;-56
2022/09/25 08:28:05;;;;;;;2.17;0.50;;;12.10;99.90;;;;;;5054308;28;20528;-56
2022/09/25 08:30:31;;;;;;;1.48;0.50;;;12.20;99.90;;;;;;5053777;28;20035;-55
2022/09/25 08:32:57;;;;;;;0.82;0.40;;;12.30;99.90;;;;;;5054067;28;20029;-55
2022/09/25 08:35:22;;;;;;;1.95;0.40;;;12.40;99.90;;;;;;5052175;28;20037;-56
2022/09/25 08:37:48;;;;;;;1.25;0.40;;;12.50;99.90;;;;;;5053488;28;20040;-55
2022/09/25 08:40:19;;;;;;;1.85;0.57;;;12.50;99.90;;;;;;5052192;28;20083;-54
2022/09/25 08:42:48;;;;;;;1.88;0.60;;;12.60;99.90;;;;;;5053304;28;20098;-55
2022/09/25 08:51:42;;;;;;;2.15;0.60;;;12.90;99.90;;;;;;5008931;28;20141;-56
2022/09/25 08:54:17;;;;;;;3.17;0.60;;;13.00;99.90;;;;;;5007065;28;20098;-56
2022/09/25 08:56:43;;;;;;;1.75;0.50;;;13.10;99.90;;;;;;5026286;28;20078;-55
2022/09/25 08:59:21;;;;;;;3.45;0.60;;;13.10;99.90;;;;;;5053043;28;20013;-56
2022/09/25 09:01:53;;;;;;;5.30;0.93;;;13.30;99.90;;;;;;5051127;28;20028;-55
2022/09/25 09:04:46;;;;;;;3.80;0.80;;;13.30;99.90;;;;;;5049022;28;20033;-55
2022/09/25 09:07:36;;;;;;;2.30;0.70;;;13.40;99.90;;;;;;5042825;28;20082;-56
2022/09/25 09:10:02;;;;;;;1.83;0.50;;;13.60;99.90;;;;;;5049945;28;20025;-56
2022/09/25 09:12:33;;;;;;;1.48;0.40;;;13.60;99.90;;;;;;5049270;28;20033;-56
2022/09/25 09:15:26;;;;;;;1.50;0.30;;;13.70;99.90;;;;;;5048604;28;20084;-56
2022/09/25 09:17:53;;;;;;;1.25;0.45;;;13.80;99.90;;;;;;5043307;28;20107;-57
2022/09/25 09:20:28;;;;;;;2.60;0.40;;;13.90;99.90;;;;;;5051580;28;20021;-57
2022/09/25 09:22:55;;;;;;;2.35;0.40;;;14.10;99.90;;;;;;5051122;28;20362;-56
2022/09/25 09:25:30;;;;;;;2.38;0.60;;;14.30;99.90;;;;;;5049774;28;20469;-54
2022/09/25 09:28:02;;;;;;;2.45;0.40;;;14.50;99.90;;;;;;5036064;28;20037;-56
2022/09/25 09:30:40;;;;;;;2.85;1.33;;;14.70;99.90;;;;;;5031188;28;20079;-56
2022/09/25 09:33:40;;;;;;;3.15;0.45;;;14.90;99.90;;;;;;5034149;28;20481;-55
2022/09/25 09:36:27;;;;;;;3.47;0.55;;;15.10;99.90;;;;;;5030366;28;20029;-56
2022/09/25 09:39:18;;;;;;;3.13;0.50;;;15.20;99.90;;;;;;5043352;28;20088;-54
2022/09/25 09:42:06;;;;;;;2.63;0.50;;;15.30;99.90;;;;;;5044615;28;20497;-55
2022/09/25 09:44:56;;;;;;;2.17;0.38;;;15.30;99.00;;;;;;5033418;28;20180;-54
2022/09/25 09:47:28;;;;;;;3.80;0.50;;;15.40;98.80;;;;;;5036495;28;20035;-55
2022/09/25 09:50:19;;;;;;;2.47;0.50;;;15.50;98.00;;;;;;5044290;28;20021;-56
2022/09/25 09:52:49;;;;;;;2.80;0.55;;;15.60;97.40;;;;;;5049972;28;20025;-55
2022/09/25 09:55:32;;;;;;;1.35;0.30;;;15.70;97.10;;;;;;5051438;28;20092;-57
2022/09/25 09:58:07;;;;;;;1.20;0.30;;;15.90;96.40;;;;;;5045813;28;20128;-57
2022/09/25 10:00:34;;;;;;;2.90;0.40;;;16.20;96.20;;;;;;5051363;28;20032;-56
2022/09/25 10:03:04;;;;;;;1.65;0.50;;;16.40;95.90;;;;;;5050352;28;20025;-57
2022/09/25 10:05:36;;;;;;;1.75;0.40;;;16.70;95.40;;;;;;5051878;28;20020;-56
2022/09/25 10:08:02;;;;;;;2.20;0.30;;;16.90;94.90;;;;;;5052071;28;20052;-56
2022/09/25 10:10:52;;;;;;;1.92;0.30;;;17.10;95.00;;;;;;5050181;28;20029;-57
2022/09/25 10:13:34;;;;;;;0.98;0.30;;;17.40;94.30;;;;;;5040187;28;20102;-56
2022/09/25 10:16:18;;;;;;;1.33;0.20;;;17.70;94.10;;;;;;5042983;28;20025;-57
2022/09/25 10:19:08;;;;;;;1.55;0.30;;;18.00;93.80;;;;;;5043294;28;20021;-57
2022/09/25 10:21:44;;;;;;;2.30;0.30;;;18.20;93.30;;;;;;5038969;28;20028;-56
2022/09/25 10:24:53;;;;;;;0.93;0.30;;;18.40;92.30;;;;;;5037495;28;20033;-57
2022/09/25 10:27:35;;;;;;;1.08;0.35;;;18.70;91.60;;;;;;5045706;28;20056;-57
2022/09/25 10:30:06;;;;;;;2.20;0.68;;;19.30;91.10;;;;;;5040970;28;20487;-57
2022/09/25 10:32:34;;;;;;;2.28;0.28;;;19.90;90.20;;;;;;5051790;28;20568;-57
2022/09/25 10:35:00;;;;;;;1.80;0.30;;;20.50;89.70;;;;;;5050462;28;20029;-57
2022/09/25 10:37:33;;;;;;;0.32;0.20;;;21.30;89.40;;;;;;5067685;28;20075;-57
2022/09/25 10:40:05;;;;;;;1.20;0.52;;;22.30;86.30;;;;;;5054420;28;20036;-57
2022/09/25 10:42:40;;;;;;;1.73;0.30;;;24.00;83.10;;;;;;5053496;28;20515;-57
2022/09/25 10:45:35;;;;;;;1.88;0.40;;;27.20;72.40;;;;;;5052463;28;20044;-58
2022/09/25 10:51:08;;;;;;;1.30;0.30;;;32.70;57.20;;;;;;5053991;28;20031;-58
2022/09/25 10:53:33;;;;;;;1.77;0.43;;;33.70;47.50;;;;;;5054388;28;20071;-57
2022/09/25 10:56:07;;;;;;;1.30;0.40;;;31.90;47.40;;;;;;5055740;28;20017;-57
2022/09/25 10:58:42;;;;;;;0.70;0.30;;;31.70;50.40;;;;;;5055842;28;20017;-58
2022/09/25 11:01:12;;;;;;;1.35;0.30;;;34.60;48.90;;;;;;5057093;28;20021;-58
2022/09/25 11:03:45;;;;;;;2.53;0.40;;;35.60;45.50;;;;;;5051238;28;20076;-58
2022/09/25 11:06:19;;;;;;;1.48;0.43;;;33.80;42.90;;;;;;5054356;28;20028;-57
2022/09/25 11:09:06;;;;;;;1.20;0.40;;;31.80;43.10;;;;;;5045271;28;20033;-57
2022/09/25 11:11:33;;;;;;;1.15;0.38;;;30.30;46.30;;;;;;5050792;28;20513;-57
2022/09/25 11:14:02;;;;;;;1.27;0.75;;;29.10;48.60;;;;;;5049141;28;20111;-57
2022/09/25 11:16:51;;;;;;;1.20;0.40;;;28.30;49.60;;;;;;5052480;28;20099;-57
2022/09/25 11:19:29;;;;;;;1.13;0.40;;;29.20;50.00;;;;;;5046891;28;20025;-57
2022/09/25 11:22:34;;;;;;;0.85;0.40;;;30.80;48.70;;;;;;5036233;28;20086;-57
2022/09/25 11:25:17;;;;;;;1.35;0.40;;;33.60;46.60;;;;;;5035726;28;20060;-58
2022/09/25 11:27:48;;;;;;;1.05;0.30;;;37.10;43.10;;;;;;5034056;28;20025;-58
2022/09/25 11:30:18;;;;;;;0.88;0.50;;;39.50;40.10;;;;;;5043722;28;20074;-58
2022/09/25 11:33:04;;;;;;;0.95;0.40;;;41.30;36.80;;;;;;5052209;28;20051;-58
2022/09/25 11:36:11;;;;;;;1.60;0.50;;;42.50;34.00;;;;;;5054615;28;20524;-58
2022/09/25 11:41:45;;;;;;;1.17;0.50;;;44.60;33.60;;;;;;5047634;28;20409;-58
2022/09/25 11:44:27;;;;;;;0.70;0.40;;;45.70;33.30;;;;;;5064809;28;20028;-59
2022/09/25 11:47:10;;;;;;;1.10;0.60;;;46.80;32.00;;;;;;5045713;28;20397;-58
2022/09/25 11:49:39;;;;;;;0.93;0.40;;;47.70;31.00;;;;;;5062739;28;20032;-59
2022/09/25 11:52:22;;;;;;;0.70;0.50;;;48.50;30.00;;;;;;5065157;28;20028;-58
2022/09/25 11:55:28;;;;;;;1.55;0.50;;;49.10;29.70;;;;;;5073814;28;20502;-58
2022/09/25 11:58:13;;;;;;;1.40;0.70;;;49.70;29.20;;;;;;5054727;28;20024;-59
2022/09/25 12:01:08;;;;;;;0.90;0.60;;;50.00;28.80;;;;;;5066704;28;20016;-58
2022/09/25 12:03:59;;;;;;;1.15;0.80;;;50.50;28.60;;;;;;5054108;28;20477;-59
2022/09/25 12:06:44;;;;;;;0.90;0.70;;;51.30;28.40;;;;;;5048501;28;20036;-59
2022/09/25 12:09:21;;;;;;;1.42;0.80;;;51.70;28.20;;;;;;5054416;28;20477;-59
2022/09/25 12:12:08;;;;;;;1.20;0.80;;;51.90;27.40;;;;;;5053533;28;20025;-58
2022/09/25 12:14:55;;;;;;;0.93;0.77;;;51.40;26.80;;;;;;5047075;28;20028;-59
2022/09/25 12:17:33;;;;;;;0.95;0.80;;;50.50;26.90;;;;;;5052621;28;20036;-59
2022/09/25 12:20:23;;;;;;;1.02;0.80;;;50.40;27.20;;;;;;5050123;28;20013;-59
2022/09/25 12:23:20;;;;;;;1.05;0.80;;;50.20;27.40;;;;;;5052891;28;20017;-58
2022/09/25 12:26:01;;;;;;;1.80;0.90;;;49.30;27.80;;;;;;5053605;28;20515;-58
2022/09/25 12:29:02;;;;;;;0.90;0.80;;;49.00;27.40;;;;;;5053157;28;20459;-58
2022/09/25 12:31:56;;;;;;;1.80;0.85;;;48.70;27.50;;;;;;5039264;28;20040;-58
2022/09/25 12:34:49;;;;;;;1.80;0.95;;;48.80;27.60;;;;;;5053840;28;20040;-59
2022/09/25 12:37:30;;;;;;;1.60;0.80;;;48.80;27.60;;;;;;5052939;28;20025;-58
2022/09/25 12:39:58;;;;;;;3.08;0.90;;;48.30;27.70;;;;;;5053748;28;20025;-58
2022/09/25 12:42:37;;;;;;;1.13;0.80;;;48.30;27.80;;;;;;5052620;28;20041;-59
2022/09/25 12:45:30;;;;;;;2.78;0.80;;;48.10;27.80;;;;;;5051874;28;20036;-58
2022/09/25 12:48:17;;;;;;;1.13;0.70;;;47.70;27.90;;;;;;5052674;28;20044;-58
2022/09/25 12:50:54;;;;;;;1.05;0.80;;;47.60;28.00;;;;;;5054006;28;20025;-58
2022/09/25 12:53:32;;;;;;;1.77;1.00;;;47.50;27.90;;;;;;5053579;28;20552;-58
2022/09/25 12:56:04;;;;;;;1.92;0.90;;;47.30;27.60;;;;;;5052845;28;20036;-58
2022/09/25 12:58:46;;;;;;;1.35;0.70;;;47.00;27.70;;;;;;5053494;28;20017;-58
2022/09/25 13:01:28;;;;;;;2.70;0.82;;;47.00;27.60;;;;;;5051604;28;20021;-58
2022/09/25 13:04:21;;;;;;;1.50;0.85;;;46.10;27.90;;;;;;5057872;28;20082;-58
2022/09/25 13:07:25;;;;;;;1.13;0.95;;;44.80;28.30;;;;;;5052240;28;20025;-58
2022/09/25 13:09:50;;;;;;;1.33;0.70;;;44.30;28.40;;;;;;5059149;28;20032;-58
2022/09/25 13:12:35;;;;;;;1.42;0.85;;;44.50;28.40;;;;;;5052151;28;20120;-58
2022/09/25 13:15:22;;;;;;;0.60;0.60;;;44.50;28.20;;;;;;5053089;28;20033;-58
2022/09/25 13:17:48;;;;;;;1.48;0.60;;;44.50;28.00;;;;;;5048290;28;20404;-58
2022/09/25 13:20:36;;;;;;;1.00;0.70;;;44.50;28.00;;;;;;5044457;28;20500;-58
2022/09/25 13:23:07;;;;;;;1.40;0.70;;;44.60;28.20;;;;;;5008119;28;20385;-58
2022/09/25 13:25:58;;;;;;;0.80;0.60;;;44.30;28.20;;;;;;5052127;28;20051;-58
2022/09/25 13:28:30;;;;;;;1.27;0.65;;;44.00;28.00;;;;;;5043238;28;20068;-58
2022/09/25 13:31:04;;;;;;;0.55;0.50;;;43.80;27.90;;;;;;5035652;28;20029;-58
2022/09/25 13:33:37;;;;;;;1.02;0.57;;;43.60;28.00;;;;;;5045381;28;20126;-58
2022/09/25 13:36:23;;;;;;;1.23;0.70;;;43.40;28.10;;;;;;5039446;28;20025;-58
2022/09/25 13:41:54;;;;;;;2.05;0.80;;;42.80;28.40;;;;;;5045698;28;20103;-58
2022/09/25 13:44:39;;;;;;;1.63;0.60;;;42.20;28.60;;;;;;5041148;28;20021;-58